sensor_id;sensor_type;location;lat;lon;timestamp;temperature;humidity
41469;DHT22;27206;47.032;15.484;2023-12-20T00:01:11;-0.70;99.90
41469;DHT22;27206;47.032;15.484;2023-12-20T00:03:36;-0.60;99.90
41469;DHT22;27206;47.032;15.484;2023-12-20T00:06:02;-0.60;99.90
41469;DHT22;27206;47.032;15.484;2023-12-20T00:08:27;-0.60;99.90
41469;DHT22;27206;47.032;15.484;2023-12-20T00:10:53;-0.60;99.90
41469;DHT22;27206;47.032;15.484;2023-12-20T00:13:18;-0.60;99.90
41469;DHT22;27206;47.032;15.484;2023-12-20T00:15:44;-0.50;99.90
41469;DHT22;27206;47.032;15.484;2023-12-20T00:18:09;-0.50;99.90
41469;DHT22;27206;47.032;15.484;2023-12-20T00:20:35;-0.50;99.90
41469;DHT22;27206;47.032;15.484;2023-12-20T00:23:01;-0.60;99.90
41469;DHT22;27206;47.032;15.484;2023-12-20T00:25:27;-0.50;99.90
41469;DHT22;27206;47.032;15.484;2023-12-20T00:27:53;-0.50;99.90
41469;DHT22;27206;47.032;15.484;2023-12-20T00:30:18;-0.50;99.90
41469;DHT22;27206;47.032;15.484;2023-12-20T00:32:44;-0.50;99.90
41469;DHT22;27206;47.032;15.484;2023-12-20T00:35:12;-0.60;99.90
41469;DHT22;27206;47.032;15.484;2023-12-20T00:37:37;-0.70;99.90
41469;DHT22;27206;47.032;15.484;2023-12-20T00:40:03;-0.80;99.90
41469;DHT22;27206;47.032;15.484;2023-12-20T00:42:28;-1.10;99.90
41469;DHT22;27206;47.032;15.484;2023-12-20T00:44:54;-1.10;99.90
41469;DHT22;27206;47.032;15.484;2023-12-20T00:47:19;-1.10;99.90
41469;DHT22;27206;47.032;15.484;2023-12-20T00:49:45;-1.20;99.90
41469;DHT22;27206;47.032;15.484;2023-12-20T00:52:10;-1.10;99.90
41469;DHT22;27206;47.032;15.484;2023-12-20T00:54:36;-1.20;99.90
41469;DHT22;27206;47.032;15.484;2023-12-20T00:57:01;-1.10;99.90
41469;DHT22;27206;47.032;15.484;2023-12-20T00:59:27;-1.10;99.90
41469;DHT22;27206;47.032;15.484;2023-12-20T01:01:52;-1.10;99.90
41469;DHT22;27206;47.032;15.484;2023-12-20T01:04:18;-1.10;99.90
41469;DHT22;27206;47.032;15.484;2023-12-20T01:06:44;-1.10;99.90
41469;DHT22;27206;47.032;15.484;2023-12-20T01:09:10;-1.20;99.90
41469;DHT22;27206;47.032;15.484;2023-12-20T01:11:35;-1.30;99.90
41469;DHT22;27206;47.032;15.484;2023-12-20T01:14:01;-1.30;99.90
41469;DHT22;27206;47.032;15.484;2023-12-20T01:16:26;-1.30;99.90
41469;DHT22;27206;47.032;15.484;2023-12-20T01:18:52;-1.30;99.90
41469;DHT22;27206;47.032;15.484;2023-12-20T01:21:17;-1.30;99.90
41469;DHT22;27206;47.032;15.484;2023-12-20T01:23:43;-1.30;99.90
41469;DHT22;27206;47.032;15.484;2023-12-20T01:26:08;-1.30;99.90
41469;DHT22;27206;47.032;15.484;2023-12-20T01:28:34;-1.20;99.90
41469;DHT22;27206;47.032;15.484;2023-12-20T01:30:59;-1.20;99.90
41469;DHT22;27206;47.032;15.484;2023-12-20T01:33:25;-1.30;99.90
41469;DHT22;27206;47.032;15.484;2023-12-20T01:35:50;-1.30;99.90
41469;DHT22;27206;47.032;15.484;2023-12-20T01:38:16;-1.30;99.90
41469;DHT22;27206;47.032;15.484;2023-12-20T01:40:44;-1.40;99.90
41469;DHT22;27206;47.032;15.484;2023-12-20T01:43:09;-1.40;99.90
41469;DHT22;27206;47.032;15.484;2023-12-20T01:45:36;-1.40;99.90
41469;DHT22;27206;47.032;15.484;2023-12-20T01:48:02;-1.50;99.90
41469;DHT22;27206;47.032;15.484;2023-12-20T01:50:29;-1.60;99.90
41469;DHT22;27206;47.032;15.484;2023-12-20T01:52:58;-1.60;99.90
41469;DHT22;27206;47.032;15.484;2023-12-20T01:55:25;-1.70;99.90
41469;DHT22;27206;47.032;15.484;2023-12-20T01:57:51;-1.60;99.90
41469;DHT22;27206;47.032;15.484;2023-12-20T02:00:16;-1.60;99.90
41469;DHT22;27206;47.032;15.484;2023-12-20T02:02:42;-1.60;99.90
41469;DHT22;27206;47.032;15.484;2023-12-20T02:05:08;-1.60;99.90
41469;DHT22;27206;47.032;15.484;2023-12-20T02:07:34;-1.70;99.90
41469;DHT22;27206;47.032;15.484;2023-12-20T02:10:00;-1.60;99.90
41469;DHT22;27206;47.032;15.484;2023-12-20T02:12:26;-1.70;99.90
41469;DHT22;27206;47.032;15.484;2023-12-20T02:14:52;-1.80;99.90
41469;DHT22;27206;47.032;15.484;2023-12-20T02:17:19;-1.80;99.90
41469;DHT22;27206;47.032;15.484;2023-12-20T02:19:44;-1.70;99.90
41469;DHT22;27206;47.032;15.484;2023-12-20T02:22:10;-1.70;99.90
41469;DHT22;27206;47.032;15.484;2023-12-20T02:24:36;-1.60;99.90
41469;DHT22;27206;47.032;15.484;2023-12-20T02:27:01;-1.60;99.90
41469;DHT22;27206;47.032;15.484;2023-12-20T02:29:27;-1.60;99.90
41469;DHT22;27206;47.032;15.484;2023-12-20T02:31:53;-1.60;99.90
41469;DHT22;27206;47.032;15.484;2023-12-20T02:34:18;-1.70;99.90
41469;DHT22;27206;47.032;15.484;2023-12-20T02:36:44;-1.60;99.90
41469;DHT22;27206;47.032;15.484;2023-12-20T02:39:09;-1.60;99.90
41469;DHT22;27206;47.032;15.484;2023-12-20T02:41:35;-1.70;99.90
41469;DHT22;27206;47.032;15.484;2023-12-20T02:44:01;-1.70;99.90
41469;DHT22;27206;47.032;15.484;2023-12-20T02:46:26;-1.70;99.90
41469;DHT22;27206;47.032;15.484;2023-12-20T02:48:52;-1.80;99.90
41469;DHT22;27206;47.032;15.484;2023-12-20T02:51:17;-1.70;99.90
41469;DHT22;27206;47.032;15.484;2023-12-20T02:53:43;-1.70;99.90
41469;DHT22;27206;47.032;15.484;2023-12-20T02:56:08;-1.70;99.90
41469;DHT22;27206;47.032;15.484;2023-12-20T02:58:34;-1.60;99.90
41469;DHT22;27206;47.032;15.484;2023-12-20T03:00:59;-1.70;99.90
41469;DHT22;27206;47.032;15.484;2023-12-20T03:03:25;-1.70;99.90
41469;DHT22;27206;47.032;15.484;2023-12-20T03:05:50;-1.70;99.90
41469;DHT22;27206;47.032;15.484;2023-12-20T03:08:16;-1.70;99.90
41469;DHT22;27206;47.032;15.484;2023-12-20T03:10:41;-1.70;99.90
41469;DHT22;27206;47.032;15.484;2023-12-20T03:13:07;-1.70;99.90
41469;DHT22;27206;47.032;15.484;2023-12-20T03:15:32;-1.60;99.90
41469;DHT22;27206;47.032;15.484;2023-12-20T03:17:58;-1.60;99.90
41469;DHT22;27206;47.032;15.484;2023-12-20T03:20:24;-1.70;99.90
41469;DHT22;27206;47.032;15.484;2023-12-20T03:22:51;-1.60;99.90
41469;DHT22;27206;47.032;15.484;2023-12-20T03:25:17;-1.50;99.90
41469;DHT22;27206;47.032;15.484;2023-12-20T03:27:43;-1.50;99.90
41469;DHT22;27206;47.032;15.484;2023-12-20T03:30:08;-1.50;99.90
41469;DHT22;27206;47.032;15.484;2023-12-20T03:32:34;-1.50;99.90
41469;DHT22;27206;47.032;15.484;2023-12-20T03:34:59;-1.40;99.90
41469;DHT22;27206;47.032;15.484;2023-12-20T03:37:25;-1.40;99.90
41469;DHT22;27206;47.032;15.484;2023-12-20T03:39:50;-1.40;99.90
41469;DHT22;27206;47.032;15.484;2023-12-20T03:42:16;-1.50;99.90
41469;DHT22;27206;47.032;15.484;2023-12-20T03:44:41;-1.50;99.90
41469;DHT22;27206;47.032;15.484;2023-12-20T03:47:07;-1.40;99.90
41469;DHT22;27206;47.032;15.484;2023-12-20T03:49:32;-1.50;99.90
41469;DHT22;27206;47.032;15.484;2023-12-20T03:51:58;-1.50;99.90
41469;DHT22;27206;47.032;15.484;2023-12-20T03:54:24;-1.40;99.90
41469;DHT22;27206;47.032;15.484;2023-12-20T03:56:49;-1.50;99.90
41469;DHT22;27206;47.032;15.484;2023-12-20T03:59:15;-1.40;99.90
41469;DHT22;27206;47.032;15.484;2023-12-20T04:01:44;-1.40;99.90
41469;DHT22;27206;47.032;15.484;2023-12-20T04:04:10;-1.40;99.90
41469;DHT22;27206;47.032;15.484;2023-12-20T04:06:36;-1.40;99.90
41469;DHT22;27206;47.032;15.484;2023-12-20T04:09:01;-1.40;99.90
41469;DHT22;27206;47.032;15.484;2023-12-20T04:11:27;-1.40;99.90
41469;DHT22;27206;47.032;15.484;2023-12-20T04:13:52;-1.60;99.90
41469;DHT22;27206;47.032;15.484;2023-12-20T04:16:18;-1.50;99.90
41469;DHT22;27206;47.032;15.484;2023-12-20T04:18:43;-1.50;99.90
41469;DHT22;27206;47.032;15.484;2023-12-20T04:21:09;-1.50;99.90
41469;DHT22;27206;47.032;15.484;2023-12-20T04:23:34;-1.60;99.90
41469;DHT22;27206;47.032;15.484;2023-12-20T04:26:00;-1.70;99.90
41469;DHT22;27206;47.032;15.484;2023-12-20T04:28:25;-1.80;99.90
41469;DHT22;27206;47.032;15.484;2023-12-20T04:30:51;-1.80;99.90
41469;DHT22;27206;47.032;15.484;2023-12-20T04:33:16;-1.70;99.90
41469;DHT22;27206;47.032;15.484;2023-12-20T04:35:42;-1.70;99.90
41469;DHT22;27206;47.032;15.484;2023-12-20T04:38:08;-1.80;99.90
41469;DHT22;27206;47.032;15.484;2023-12-20T04:40:34;-1.70;99.90
41469;DHT22;27206;47.032;15.484;2023-12-20T04:42:59;-2.00;99.90
41469;DHT22;27206;47.032;15.484;2023-12-20T04:45:25;-1.90;99.90
41469;DHT22;27206;47.032;15.484;2023-12-20T04:47:51;-2.00;99.90
41469;DHT22;27206;47.032;15.484;2023-12-20T04:50:16;-2.00;99.90
41469;DHT22;27206;47.032;15.484;2023-12-20T04:52:42;-2.10;99.90
41469;DHT22;27206;47.032;15.484;2023-12-20T04:55:08;-2.10;99.90
41469;DHT22;27206;47.032;15.484;2023-12-20T04:57:34;-2.10;99.90
41469;DHT22;27206;47.032;15.484;2023-12-20T05:00:00;-2.10;99.90
41469;DHT22;27206;47.032;15.484;2023-12-20T05:02:25;-2.20;99.90
41469;DHT22;27206;47.032;15.484;2023-12-20T05:04:51;-2.40;99.90
41469;DHT22;27206;47.032;15.484;2023-12-20T05:07:16;-2.30;99.90
41469;DHT22;27206;47.032;15.484;2023-12-20T05:09:42;-2.30;99.90
41469;DHT22;27206;47.032;15.484;2023-12-20T05:12:08;-2.30;99.90
41469;DHT22;27206;47.032;15.484;2023-12-20T05:14:33;-2.30;99.90
41469;DHT22;27206;47.032;15.484;2023-12-20T05:16:59;-2.20;99.90
41469;DHT22;27206;47.032;15.484;2023-12-20T05:19:24;-2.20;99.90
41469;DHT22;27206;47.032;15.484;2023-12-20T05:21:50;-2.30;99.90
41469;DHT22;27206;47.032;15.484;2023-12-20T05:24:15;-2.30;99.90
41469;DHT22;27206;47.032;15.484;2023-12-20T05:26:41;-2.20;99.90
41469;DHT22;27206;47.032;15.484;2023-12-20T05:29:06;-2.10;99.90
41469;DHT22;27206;47.032;15.484;2023-12-20T05:31:32;-2.20;99.90
41469;DHT22;27206;47.032;15.484;2023-12-20T05:33:57;-2.20;99.90
41469;DHT22;27206;47.032;15.484;2023-12-20T05:36:23;-2.20;99.90
41469;DHT22;27206;47.032;15.484;2023-12-20T05:38:49;-2.20;99.90
41469;DHT22;27206;47.032;15.484;2023-12-20T05:41:14;-2.10;99.90
41469;DHT22;27206;47.032;15.484;2023-12-20T05:43:40;-2.10;99.90
41469;DHT22;27206;47.032;15.484;2023-12-20T05:46:05;-2.10;99.90
41469;DHT22;27206;47.032;15.484;2023-12-20T05:48:31;-2.10;99.90
41469;DHT22;27206;47.032;15.484;2023-12-20T05:50:56;-2.00;99.90
41469;DHT22;27206;47.032;15.484;2023-12-20T05:53:22;-2.00;99.90
41469;DHT22;27206;47.032;15.484;2023-12-20T05:55:48;-2.00;99.90
41469;DHT22;27206;47.032;15.484;2023-12-20T05:58:13;-1.90;99.90
41469;DHT22;27206;47.032;15.484;2023-12-20T06:00:39;-1.80;99.90
41469;DHT22;27206;47.032;15.484;2023-12-20T06:03:04;-1.70;99.90
41469;DHT22;27206;47.032;15.484;2023-12-20T06:05:30;-1.80;99.90
41469;DHT22;27206;47.032;15.484;2023-12-20T06:07:56;-1.80;99.90
41469;DHT22;27206;47.032;15.484;2023-12-20T06:10:26;-1.80;99.90
41469;DHT22;27206;47.032;15.484;2023-12-20T06:12:52;-1.70;99.90
41469;DHT22;27206;47.032;15.484;2023-12-20T06:15:18;-1.60;99.90
41469;DHT22;27206;47.032;15.484;2023-12-20T06:17:43;-1.60;99.90
41469;DHT22;27206;47.032;15.484;2023-12-20T06:20:09;-1.40;99.90
41469;DHT22;27206;47.032;15.484;2023-12-20T06:22:35;-1.30;99.90
41469;DHT22;27206;47.032;15.484;2023-12-20T06:25:01;-1.30;99.90
41469;DHT22;27206;47.032;15.484;2023-12-20T06:27:28;-1.30;99.90
41469;DHT22;27206;47.032;15.484;2023-12-20T06:29:54;-1.20;99.90
41469;DHT22;27206;47.032;15.484;2023-12-20T06:32:19;-1.10;99.90
41469;DHT22;27206;47.032;15.484;2023-12-20T06:34:45;-1.00;99.90
41469;DHT22;27206;47.032;15.484;2023-12-20T06:37:10;-0.90;99.90
41469;DHT22;27206;47.032;15.484;2023-12-20T06:39:36;-0.80;99.90
41469;DHT22;27206;47.032;15.484;2023-12-20T06:42:01;-0.80;99.90
41469;DHT22;27206;47.032;15.484;2023-12-20T06:44:27;-0.70;99.90
41469;DHT22;27206;47.032;15.484;2023-12-20T06:46:52;-0.70;99.90
41469;DHT22;27206;47.032;15.484;2023-12-20T06:49:18;-0.70;99.90
41469;DHT22;27206;47.032;15.484;2023-12-20T06:51:44;-0.60;99.90
41469;DHT22;27206;47.032;15.484;2023-12-20T06:54:09;-0.50;99.90
41469;DHT22;27206;47.032;15.484;2023-12-20T06:56:35;-0.50;99.90
41469;DHT22;27206;47.032;15.484;2023-12-20T06:59:00;-0.40;99.90
41469;DHT22;27206;47.032;15.484;2023-12-20T07:01:26;-0.40;99.90
41469;DHT22;27206;47.032;15.484;2023-12-20T07:03:51;-0.30;99.90
41469;DHT22;27206;47.032;15.484;2023-12-20T07:06:17;-0.20;99.90
41469;DHT22;27206;47.032;15.484;2023-12-20T07:08:43;-0.30;99.90
41469;DHT22;27206;47.032;15.484;2023-12-20T07:11:08;-0.20;99.90
41469;DHT22;27206;47.032;15.484;2023-12-20T07:13:34;-0.20;99.90
41469;DHT22;27206;47.032;15.484;2023-12-20T07:15:59;-0.10;99.90
41469;DHT22;27206;47.032;15.484;2023-12-20T07:18:25;-0.10;99.90
41469;DHT22;27206;47.032;15.484;2023-12-20T07:20:50;0.00;99.90
41469;DHT22;27206;47.032;15.484;2023-12-20T07:23:16;0.00;99.90
41469;DHT22;27206;47.032;15.484;2023-12-20T07:25:41;0.00;99.90
41469;DHT22;27206;47.032;15.484;2023-12-20T07:28:07;0.10;99.90
41469;DHT22;27206;47.032;15.484;2023-12-20T07:30:32;0.20;99.90
41469;DHT22;27206;47.032;15.484;2023-12-20T07:32:58;0.20;99.90
41469;DHT22;27206;47.032;15.484;2023-12-20T07:35:23;0.30;99.90
41469;DHT22;27206;47.032;15.484;2023-12-20T07:37:49;0.30;99.90
41469;DHT22;27206;47.032;15.484;2023-12-20T07:40:14;0.20;99.90
41469;DHT22;27206;47.032;15.484;2023-12-20T07:42:42;0.30;99.90
41469;DHT22;27206;47.032;15.484;2023-12-20T07:45:08;0.30;99.90
41469;DHT22;27206;47.032;15.484;2023-12-20T07:47:34;0.30;99.90
41469;DHT22;27206;47.032;15.484;2023-12-20T07:50:00;0.30;99.90
41469;DHT22;27206;47.032;15.484;2023-12-20T07:52:25;0.40;99.90
41469;DHT22;27206;47.032;15.484;2023-12-20T07:54:51;0.40;99.90
41469;DHT22;27206;47.032;15.484;2023-12-20T07:57:17;0.40;99.90
41469;DHT22;27206;47.032;15.484;2023-12-20T07:59:42;0.40;99.90
41469;DHT22;27206;47.032;15.484;2023-12-20T08:02:09;0.50;99.90
41469;DHT22;27206;47.032;15.484;2023-12-20T08:04:35;0.50;99.90
41469;DHT22;27206;47.032;15.484;2023-12-20T08:07:00;0.40;99.90
41469;DHT22;27206;47.032;15.484;2023-12-20T08:09:26;0.50;99.90
41469;DHT22;27206;47.032;15.484;2023-12-20T08:11:51;0.60;99.90
41469;DHT22;27206;47.032;15.484;2023-12-20T08:14:17;0.60;99.90
41469;DHT22;27206;47.032;15.484;2023-12-20T08:16:42;0.70;99.90
41469;DHT22;27206;47.032;15.484;2023-12-20T08:19:08;0.60;99.90
41469;DHT22;27206;47.032;15.484;2023-12-20T08:21:33;0.80;99.90
41469;DHT22;27206;47.032;15.484;2023-12-20T08:23:59;0.80;99.90
41469;DHT22;27206;47.032;15.484;2023-12-20T08:26:25;0.80;99.90
41469;DHT22;27206;47.032;15.484;2023-12-20T08:28:51;0.80;99.90
41469;DHT22;27206;47.032;15.484;2023-12-20T08:31:17;0.80;99.90
41469;DHT22;27206;47.032;15.484;2023-12-20T08:33:46;0.80;99.90
41469;DHT22;27206;47.032;15.484;2023-12-20T08:36:12;0.90;99.90
41469;DHT22;27206;47.032;15.484;2023-12-20T08:38:38;1.00;99.90
41469;DHT22;27206;47.032;15.484;2023-12-20T08:41:03;1.10;99.90
41469;DHT22;27206;47.032;15.484;2023-12-20T08:43:33;1.20;99.90
41469;DHT22;27206;47.032;15.484;2023-12-20T08:45:59;1.20;99.90
41469;DHT22;27206;47.032;15.484;2023-12-20T08:48:24;1.30;99.90
41469;DHT22;27206;47.032;15.484;2023-12-20T08:50:50;1.30;99.90
41469;DHT22;27206;47.032;15.484;2023-12-20T08:53:17;1.40;99.90
41469;DHT22;27206;47.032;15.484;2023-12-20T08:55:43;1.40;99.90
41469;DHT22;27206;47.032;15.484;2023-12-20T08:58:09;1.50;99.90
41469;DHT22;27206;47.032;15.484;2023-12-20T09:00:34;1.50;99.90
41469;DHT22;27206;47.032;15.484;2023-12-20T09:03:01;1.60;99.90
41469;DHT22;27206;47.032;15.484;2023-12-20T09:05:26;1.50;99.90
41469;DHT22;27206;47.032;15.484;2023-12-20T09:07:52;1.60;99.90
41469;DHT22;27206;47.032;15.484;2023-12-20T09:10:17;1.60;99.90
41469;DHT22;27206;47.032;15.484;2023-12-20T09:12:50;1.70;99.90
41469;DHT22;27206;47.032;15.484;2023-12-20T09:15:16;1.70;99.90
41469;DHT22;27206;47.032;15.484;2023-12-20T09:17:41;1.90;99.90
41469;DHT22;27206;47.032;15.484;2023-12-20T09:20:07;1.90;99.90
41469;DHT22;27206;47.032;15.484;2023-12-20T09:22:33;2.00;99.90
41469;DHT22;27206;47.032;15.484;2023-12-20T09:24:59;2.00;99.90
41469;DHT22;27206;47.032;15.484;2023-12-20T09:27:25;2.00;99.90
41469;DHT22;27206;47.032;15.484;2023-12-20T09:29:50;2.10;99.90
41469;DHT22;27206;47.032;15.484;2023-12-20T09:32:16;2.30;99.90
41469;DHT22;27206;47.032;15.484;2023-12-20T09:34:41;2.20;99.90
41469;DHT22;27206;47.032;15.484;2023-12-20T09:37:07;2.10;99.90
41469;DHT22;27206;47.032;15.484;2023-12-20T09:39:33;2.10;99.90
41469;DHT22;27206;47.032;15.484;2023-12-20T09:42:02;2.20;99.90
41469;DHT22;27206;47.032;15.484;2023-12-20T09:44:28;2.30;99.90
41469;DHT22;27206;47.032;15.484;2023-12-20T09:46:54;2.50;99.90
41469;DHT22;27206;47.032;15.484;2023-12-20T09:49:20;2.40;99.90
41469;DHT22;27206;47.032;15.484;2023-12-20T09:51:46;2.50;99.90
41469;DHT22;27206;47.032;15.484;2023-12-20T09:54:13;2.50;99.90
41469;DHT22;27206;47.032;15.484;2023-12-20T09:56:39;2.50;99.90
41469;DHT22;27206;47.032;15.484;2023-12-20T09:59:04;2.60;99.90
41469;DHT22;27206;47.032;15.484;2023-12-20T10:01:30;2.80;99.90
41469;DHT22;27206;47.032;15.484;2023-12-20T10:03:56;2.90;99.90
41469;DHT22;27206;47.032;15.484;2023-12-20T10:06:23;3.00;99.90
41469;DHT22;27206;47.032;15.484;2023-12-20T10:08:49;3.20;99.90
41469;DHT22;27206;47.032;15.484;2023-12-20T10:11:14;3.20;99.90
41469;DHT22;27206;47.032;15.484;2023-12-20T10:13:40;3.30;99.90
41469;DHT22;27206;47.032;15.484;2023-12-20T10:16:06;3.40;99.90
41469;DHT22;27206;47.032;15.484;2023-12-20T10:18:32;3.30;99.90
41469;DHT22;27206;47.032;15.484;2023-12-20T10:20:58;3.40;99.90
41469;DHT22;27206;47.032;15.484;2023-12-20T10:23:24;3.60;97.80
41469;DHT22;27206;47.032;15.484;2023-12-20T10:25:57;3.80;96.90
41469;DHT22;27206;47.032;15.484;2023-12-20T10:28:23;3.80;94.70
41469;DHT22;27206;47.032;15.484;2023-12-20T10:30:53;3.80;95.20
41469;DHT22;27206;47.032;15.484;2023-12-20T10:33:28;3.80;91.30
41469;DHT22;27206;47.032;15.484;2023-12-20T10:35:54;3.90;89.80
41469;DHT22;27206;47.032;15.484;2023-12-20T10:38:20;4.00;86.50
41469;DHT22;27206;47.032;15.484;2023-12-20T10:40:46;4.20;88.80
41469;DHT22;27206;47.032;15.484;2023-12-20T10:43:11;4.30;89.30
41469;DHT22;27206;47.032;15.484;2023-12-20T10:45:37;4.20;84.50
41469;DHT22;27206;47.032;15.484;2023-12-20T10:48:03;4.30;83.80
41469;DHT22;27206;47.032;15.484;2023-12-20T10:50:29;4.40;81.60
41469;DHT22;27206;47.032;15.484;2023-12-20T10:52:55;4.60;79.30
41469;DHT22;27206;47.032;15.484;2023-12-20T10:55:24;4.60;81.20
41469;DHT22;27206;47.032;15.484;2023-12-20T10:57:54;4.50;82.70
41469;DHT22;27206;47.032;15.484;2023-12-20T11:00:23;4.40;82.40
41469;DHT22;27206;47.032;15.484;2023-12-20T11:02:49;4.40;79.30
41469;DHT22;27206;47.032;15.484;2023-12-20T11:07:46;4.40;74.40
41469;DHT22;27206;47.032;15.484;2023-12-20T11:10:19;4.40;71.80
41469;DHT22;27206;47.032;15.484;2023-12-20T11:12:50;4.50;68.30
41469;DHT22;27206;47.032;15.484;2023-12-20T11:15:18;4.50;63.00
41469;DHT22;27206;47.032;15.484;2023-12-20T11:17:45;4.30;56.40
41469;DHT22;27206;47.032;15.484;2023-12-20T11:20:13;4.30;56.00
41469;DHT22;27206;47.032;15.484;2023-12-20T11:22:39;4.40;59.70
41469;DHT22;27206;47.032;15.484;2023-12-20T11:25:16;4.40;59.50
41469;DHT22;27206;47.032;15.484;2023-12-20T11:27:42;4.30;64.20
41469;DHT22;27206;47.032;15.484;2023-12-20T11:30:08;4.30;64.70
41469;DHT22;27206;47.032;15.484;2023-12-20T11:32:35;4.40;66.30
41469;DHT22;27206;47.032;15.484;2023-12-20T11:35:19;4.40;63.20
41469;DHT22;27206;47.032;15.484;2023-12-20T11:37:45;4.60;59.70
41469;DHT22;27206;47.032;15.484;2023-12-20T11:40:13;4.60;56.00
41469;DHT22;27206;47.032;15.484;2023-12-20T11:42:40;4.60;55.60
41469;DHT22;27206;47.032;15.484;2023-12-20T11:45:09;4.50;70.80
41469;DHT22;27206;47.032;15.484;2023-12-20T11:47:35;4.50;65.40
41469;DHT22;27206;47.032;15.484;2023-12-20T11:50:01;4.60;70.00
41469;DHT22;27206;47.032;15.484;2023-12-20T11:52:29;4.70;65.00
41469;DHT22;27206;47.032;15.484;2023-12-20T11:54:54;4.80;61.70
41469;DHT22;27206;47.032;15.484;2023-12-20T11:57:20;5.00;58.90
41469;DHT22;27206;47.032;15.484;2023-12-20T11:59:46;5.00;55.70
41469;DHT22;27206;47.032;15.484;2023-12-20T12:02:11;4.90;52.80
41469;DHT22;27206;47.032;15.484;2023-12-20T12:04:37;5.00;58.30
41469;DHT22;27206;47.032;15.484;2023-12-20T12:07:03;5.10;59.90
41469;DHT22;27206;47.032;15.484;2023-12-20T12:09:28;5.20;52.70
41469;DHT22;27206;47.032;15.484;2023-12-20T12:11:54;5.30;45.90
41469;DHT22;27206;47.032;15.484;2023-12-20T12:14:20;5.10;47.10
41469;DHT22;27206;47.032;15.484;2023-12-20T12:16:46;5.20;57.40
41469;DHT22;27206;47.032;15.484;2023-12-20T12:19:29;5.40;61.30
41469;DHT22;27206;47.032;15.484;2023-12-20T12:22:04;5.30;57.90
41469;DHT22;27206;47.032;15.484;2023-12-20T12:24:31;5.20;67.80
41469;DHT22;27206;47.032;15.484;2023-12-20T12:26:57;5.30;72.60
41469;DHT22;27206;47.032;15.484;2023-12-20T12:29:22;5.50;69.30
41469;DHT22;27206;47.032;15.484;2023-12-20T12:31:50;5.30;68.00
41469;DHT22;27206;47.032;15.484;2023-12-20T12:34:15;5.30;68.30
41469;DHT22;27206;47.032;15.484;2023-12-20T12:36:41;5.30;64.10
41469;DHT22;27206;47.032;15.484;2023-12-20T12:39:07;5.30;63.70
41469;DHT22;27206;47.032;15.484;2023-12-20T12:41:32;5.40;67.10
41469;DHT22;27206;47.032;15.484;2023-12-20T12:43:58;5.40;62.80
41469;DHT22;27206;47.032;15.484;2023-12-20T12:46:23;5.40;69.10
41469;DHT22;27206;47.032;15.484;2023-12-20T12:48:49;5.40;73.80
41469;DHT22;27206;47.032;15.484;2023-12-20T12:51:15;5.40;76.20
41469;DHT22;27206;47.032;15.484;2023-12-20T12:53:41;5.40;75.80
41469;DHT22;27206;47.032;15.484;2023-12-20T12:56:07;5.50;69.60
41469;DHT22;27206;47.032;15.484;2023-12-20T12:58:33;5.50;78.10
41469;DHT22;27206;47.032;15.484;2023-12-20T13:00:58;5.70;87.30
41469;DHT22;27206;47.032;15.484;2023-12-20T13:03:24;5.90;91.90
41469;DHT22;27206;47.032;15.484;2023-12-20T13:05:49;5.80;72.30
41469;DHT22;27206;47.032;15.484;2023-12-20T13:08:15;5.70;70.50
41469;DHT22;27206;47.032;15.484;2023-12-20T13:10:41;5.60;74.00
41469;DHT22;27206;47.032;15.484;2023-12-20T13:13:06;5.70;76.70
41469;DHT22;27206;47.032;15.484;2023-12-20T13:15:32;5.90;73.40
41469;DHT22;27206;47.032;15.484;2023-12-20T13:17:57;6.00;68.90
41469;DHT22;27206;47.032;15.484;2023-12-20T13:20:23;5.90;75.40
41469;DHT22;27206;47.032;15.484;2023-12-20T13:22:48;6.00;73.20
41469;DHT22;27206;47.032;15.484;2023-12-20T13:25:14;6.10;65.40
41469;DHT22;27206;47.032;15.484;2023-12-20T13:27:40;6.10;66.50
41469;DHT22;27206;47.032;15.484;2023-12-20T13:30:06;6.30;53.50
41469;DHT22;27206;47.032;15.484;2023-12-20T13:32:32;6.20;67.20
41469;DHT22;27206;47.032;15.484;2023-12-20T13:34:58;6.10;72.70
41469;DHT22;27206;47.032;15.484;2023-12-20T13:37:23;6.10;75.80
41469;DHT22;27206;47.032;15.484;2023-12-20T13:39:49;6.10;72.00
41469;DHT22;27206;47.032;15.484;2023-12-20T13:42:14;6.20;64.90
41469;DHT22;27206;47.032;15.484;2023-12-20T13:44:40;6.10;72.50
41469;DHT22;27206;47.032;15.484;2023-12-20T13:47:05;6.10;73.60
41469;DHT22;27206;47.032;15.484;2023-12-20T13:49:31;6.20;65.40
41469;DHT22;27206;47.032;15.484;2023-12-20T13:51:57;6.20;60.90
41469;DHT22;27206;47.032;15.484;2023-12-20T13:54:23;6.10;63.90
41469;DHT22;27206;47.032;15.484;2023-12-20T13:56:48;5.90;74.10
41469;DHT22;27206;47.032;15.484;2023-12-20T13:59:14;5.80;75.90
41469;DHT22;27206;47.032;15.484;2023-12-20T14:01:40;5.70;83.30
41469;DHT22;27206;47.032;15.484;2023-12-20T14:04:06;5.80;83.70
41469;DHT22;27206;47.032;15.484;2023-12-20T14:06:32;5.70;86.30
41469;DHT22;27206;47.032;15.484;2023-12-20T14:08:58;5.60;88.10
41469;DHT22;27206;47.032;15.484;2023-12-20T14:11:25;5.60;86.00
41469;DHT22;27206;47.032;15.484;2023-12-20T14:13:51;5.80;83.20
41469;DHT22;27206;47.032;15.484;2023-12-20T14:16:16;5.80;79.50
41469;DHT22;27206;47.032;15.484;2023-12-20T14:18:42;5.80;77.80
41469;DHT22;27206;47.032;15.484;2023-12-20T14:21:07;5.70;81.40
41469;DHT22;27206;47.032;15.484;2023-12-20T14:23:33;5.30;88.90
41469;DHT22;27206;47.032;15.484;2023-12-20T14:26:01;5.30;91.60
41469;DHT22;27206;47.032;15.484;2023-12-20T14:28:27;5.30;91.10
41469;DHT22;27206;47.032;15.484;2023-12-20T14:30:53;5.30;92.00
41469;DHT22;27206;47.032;15.484;2023-12-20T14:33:18;5.10;93.40
41469;DHT22;27206;47.032;15.484;2023-12-20T14:35:46;5.10;94.20
41469;DHT22;27206;47.032;15.484;2023-12-20T14:38:12;5.00;95.40
41469;DHT22;27206;47.032;15.484;2023-12-20T14:40:40;5.10;96.00
41469;DHT22;27206;47.032;15.484;2023-12-20T14:43:06;5.00;96.20
41469;DHT22;27206;47.032;15.484;2023-12-20T14:45:34;4.50;97.70
41469;DHT22;27206;47.032;15.484;2023-12-20T14:48:00;4.60;99.90
41469;DHT22;27206;47.032;15.484;2023-12-20T14:50:25;4.70;99.90
41469;DHT22;27206;47.032;15.484;2023-12-20T14:52:51;4.70;99.90
41469;DHT22;27206;47.032;15.484;2023-12-20T14:55:18;4.70;99.50
41469;DHT22;27206;47.032;15.484;2023-12-20T14:57:45;4.60;99.10
41469;DHT22;27206;47.032;15.484;2023-12-20T15:00:10;4.40;99.90
41469;DHT22;27206;47.032;15.484;2023-12-20T15:02:41;4.40;99.90
41469;DHT22;27206;47.032;15.484;2023-12-20T15:05:07;4.30;99.90
41469;DHT22;27206;47.032;15.484;2023-12-20T15:07:32;4.10;99.90
41469;DHT22;27206;47.032;15.484;2023-12-20T15:09:58;4.10;99.90
41469;DHT22;27206;47.032;15.484;2023-12-20T15:12:23;4.00;99.90
41469;DHT22;27206;47.032;15.484;2023-12-20T15:14:48;3.90;99.90
41469;DHT22;27206;47.032;15.484;2023-12-20T15:17:14;3.60;99.90